createdAt,value
2018-12-14T00:01:39.226Z,98382.91
2018-12-14T00:04:09.804Z,98387.91
2018-12-14T00:06:40.719Z,98389.47
2018-12-14T00:09:09.080Z,98388.20
2018-12-14T00:11:45.374Z,98387.73
2018-12-14T00:14:10.034Z,98389.03
2018-12-14T00:16:39.593Z,98382.38
2018-12-14T00:19:07.889Z,98386.47
2018-12-14T00:21:36.133Z,98381.91
2018-12-14T00:24:07.520Z,98381.76
2018-12-14T00:26:35.834Z,98389.66
2018-12-14T00:29:04.063Z,98394.19
2018-12-14T00:31:33.005Z,98397.27
2018-12-14T00:34:01.898Z,98398.11
2018-12-14T00:36:30.227Z,98393.22
2018-12-14T00:38:58.657Z,98399.38
2018-12-14T00:41:26.967Z,98397.73
2018-12-14T00:43:55.643Z,98397.30
2018-12-14T00:46:23.952Z,98394.59
2018-12-14T00:48:55.113Z,98398.58
2018-12-14T00:51:23.519Z,98404.09
2018-12-14T00:53:51.815Z,98413.26
2018-12-14T00:56:20.437Z,98416.59
2018-12-14T00:58:48.768Z,98412.83
2018-12-14T01:01:17.163Z,98409.09
2018-12-14T01:03:45.465Z,98415.11
2018-12-14T01:06:14.297Z,98416.13
2018-12-14T01:08:42.646Z,98417.42
2018-12-14T01:11:12.154Z,98410.97
2018-12-14T01:13:40.842Z,98419.06
2018-12-14T01:16:09.557Z,98419.70
2018-12-14T01:18:37.976Z,98421.77
2018-12-14T01:21:06.580Z,98423.19
2018-12-14T01:23:35.445Z,98423.73
2018-12-14T01:26:04.119Z,98422.17
2018-12-14T01:28:32.983Z,98419.70
2018-12-14T01:31:01.353Z,98420.18
2018-12-14T01:33:29.582Z,98414.13
2018-12-14T01:35:57.897Z,98423.66
2018-12-14T01:38:26.804Z,98421.45
2018-12-14T01:40:55.469Z,98425.66
2018-12-14T01:43:24.073Z,98425.39
2018-12-14T01:45:52.469Z,98427.36
2018-12-14T01:48:21.667Z,98428.99
2018-12-14T01:50:50.006Z,98432.52
2018-12-14T01:53:18.612Z,98431.69
2018-12-14T01:55:47.448Z,98425.20
2018-12-14T01:58:15.954Z,98425.20
2018-12-14T02:00:44.953Z,98428.50
2018-12-14T02:03:13.302Z,98430.13
2018-12-14T02:05:41.622Z,98429.67
2018-12-14T02:08:10.209Z,98426.42
2018-12-14T02:10:38.596Z,98427.67
2018-12-14T02:13:06.844Z,98426.15
2018-12-14T02:15:35.136Z,98414.23
2018-12-14T02:18:03.644Z,98416.63
2018-12-14T02:20:32.496Z,98412.28
2018-12-14T02:23:01.296Z,98410.97
2018-12-14T02:25:30.885Z,98415.68
2018-12-14T02:27:59.090Z,98417.95
2018-12-14T02:30:43.628Z,98419.52
2018-12-14T02:33:13.483Z,98423.14
2018-12-14T02:35:41.978Z,98424.45
2018-12-14T02:38:11.644Z,98424.89
2018-12-14T02:40:41.369Z,98422.06
2018-12-14T02:43:09.882Z,98426.80
2018-12-14T02:45:38.486Z,98430.50
2018-12-14T02:48:06.828Z,98426.27
2018-12-14T02:50:36.654Z,98430.00
2018-12-14T02:53:04.999Z,98427.28
2018-12-14T02:55:33.361Z,98420.22
2018-12-14T02:58:01.941Z,98428.36
2018-12-14T03:00:30.885Z,98427.09
2018-12-14T03:02:59.540Z,98432.56
2018-12-14T03:05:28.223Z,98429.57
2018-12-14T03:07:57.042Z,98423.42
2018-12-14T03:10:25.463Z,98422.13
2018-12-14T03:12:53.836Z,98428.18
2018-12-14T03:15:23.203Z,98418.24
2018-12-14T03:17:51.492Z,98427.03
2018-12-14T03:20:20.207Z,98429.86
2018-12-14T03:22:48.559Z,98427.67
2018-12-14T03:25:17.076Z,98426.70
2018-12-14T03:27:46.854Z,98431.30
2018-12-14T03:30:15.336Z,98424.50
2018-12-14T03:32:44.821Z,98424.30
2018-12-14T03:35:13.564Z,98418.05
2018-12-14T03:37:41.831Z,98423.27
2018-12-14T03:40:10.112Z,98419.72
2018-12-14T03:42:41.196Z,98422.08
2018-12-14T03:45:11.726Z,98423.52
2018-12-14T03:47:40.380Z,98424.77
2018-12-14T03:50:08.703Z,98420.36
2018-12-14T03:52:37.120Z,98428.69
2018-12-14T03:55:05.581Z,98434.77
2018-12-14T03:57:34.859Z,98437.73
2018-12-14T04:00:03.541Z,98439.73
2018-12-14T04:02:32.349Z,98438.64
2018-12-14T04:05:00.735Z,98440.45
2018-12-14T04:07:29.103Z,98435.08
2018-12-14T04:09:57.799Z,98440.91
2018-12-14T04:12:26.084Z,98441.28
2018-12-14T04:14:54.521Z,98443.25
2018-12-14T04:17:22.790Z,98449.33
2018-12-14T04:19:51.592Z,98448.59
2018-12-14T04:22:20.203Z,98448.24
2018-12-14T04:24:49.058Z,98448.89
2018-12-14T04:27:17.821Z,98447.62
2018-12-14T04:29:46.327Z,98447.42
2018-12-14T04:32:14.609Z,98449.77
2018-12-14T04:34:43.242Z,98443.12
2018-12-14T04:37:11.536Z,98450.86
2018-12-14T04:39:39.812Z,98446.72
2018-12-14T04:42:08.408Z,98442.53
2018-12-14T04:44:37.015Z,98441.41
2018-12-14T04:47:05.370Z,98444.56
2018-12-14T04:49:40.687Z,98438.17
2018-12-14T04:52:11.121Z,98441.19
2018-12-14T04:54:39.590Z,98446.48
2018-12-14T04:57:08.009Z,98446.04
2018-12-14T04:59:36.259Z,98445.78
2018-12-14T05:02:04.519Z,98448.39
2018-12-14T05:04:33.036Z,98446.80
2018-12-14T05:07:01.365Z,98448.78
2018-12-14T05:09:29.911Z,98449.16
2018-12-14T05:11:58.360Z,98454.97
2018-12-14T05:14:27.164Z,98456.00
2018-12-14T05:16:55.729Z,98454.13
2018-12-14T05:19:24.336Z,98454.94
2018-12-14T05:21:53.345Z,98457.94
2018-12-14T05:24:21.992Z,98462.91
2018-12-14T05:26:50.429Z,98460.84
2018-12-14T05:29:18.700Z,98457.17
2018-12-14T05:31:47.277Z,98452.87
2018-12-14T05:34:15.469Z,98455.86
2018-12-14T05:36:43.782Z,98452.83
2018-12-14T05:39:12.032Z,98453.36
2018-12-14T05:41:40.297Z,98457.30
2018-12-14T05:44:08.831Z,98454.50
2018-12-14T05:46:37.620Z,98456.10
2018-12-14T05:49:06.711Z,98460.00
2018-12-14T05:51:42.576Z,98458.57
2018-12-14T05:54:10.924Z,98460.77
2018-12-14T05:56:39.606Z,98462.04
2018-12-14T05:59:08.139Z,98462.91
2018-12-14T06:01:36.510Z,98468.25
2018-12-14T06:04:04.861Z,98469.52
2018-12-14T06:06:33.438Z,98474.19
2018-12-14T06:09:01.883Z,98473.05
2018-12-14T06:11:31.522Z,98472.38
2018-12-14T06:13:59.896Z,98478.82
2018-12-14T06:16:28.141Z,98485.50
2018-12-14T06:18:56.983Z,98483.36
2018-12-14T06:21:25.561Z,98487.06
2018-12-14T06:23:54.161Z,98484.98
2018-12-14T06:26:22.440Z,98486.36
2018-12-14T06:28:50.732Z,98492.17
2018-12-14T06:31:19.346Z,98494.03
2018-12-14T06:33:47.898Z,98495.30
2018-12-14T06:36:16.461Z,98498.94
2018-12-14T06:38:44.723Z,98502.80
2018-12-14T06:41:13.209Z,98497.14
2018-12-14T06:43:41.468Z,98505.34
2018-12-14T06:46:09.791Z,98506.80
2018-12-14T06:48:38.085Z,98511.17
2018-12-14T06:51:06.838Z,98511.55
2018-12-14T06:53:35.088Z,98507.87
2018-12-14T06:56:03.570Z,98504.38
2018-12-14T06:58:32.574Z,98512.64
2018-12-14T07:01:01.621Z,98512.73
2018-12-14T07:03:30.282Z,98512.81
2018-12-14T07:05:58.520Z,98510.75
2018-12-14T07:08:26.794Z,98513.72
2018-12-14T07:10:54.978Z,98519.48
2018-12-14T07:13:23.266Z,98514.39
2018-12-14T07:15:52.492Z,98520.44
2018-12-14T07:18:21.198Z,98527.64
2018-12-14T07:20:49.608Z,98535.44
2018-12-14T07:23:18.109Z,98536.67
2018-12-14T07:25:46.357Z,98537.20
2018-12-14T07:28:15.167Z,98533.85
2018-12-14T07:30:43.605Z,98543.16
2018-12-14T07:33:11.868Z,98542.42
2018-12-14T07:35:42.059Z,98545.14
2018-12-14T07:38:10.861Z,98547.46
2018-12-14T07:40:39.093Z,98556.11
2018-12-14T07:43:07.685Z,98557.31
2018-12-14T07:45:36.273Z,98564.83
2018-12-14T07:48:04.651Z,98564.31
2018-12-14T07:50:32.933Z,98565.33
2018-12-14T07:53:01.750Z,98571.55
2018-12-14T07:55:30.016Z,98570.42
2018-12-14T07:57:58.381Z,98575.59
2018-12-14T08:00:26.960Z,98574.34
2018-12-14T08:02:55.633Z,98581.59
2018-12-14T08:05:23.831Z,98581.28
2018-12-14T08:07:52.178Z,98584.89
2018-12-14T08:10:20.910Z,98586.28
2018-12-14T08:12:50.337Z,98587.06
2018-12-14T08:15:19.309Z,98585.47
2018-12-14T08:17:48.268Z,98589.47
2018-12-14T08:20:17.222Z,98589.91
2018-12-14T08:22:45.844Z,98591.45
2018-12-14T08:25:15.129Z,98595.62
2018-12-14T08:27:43.388Z,98591.78
2018-12-14T08:30:12.034Z,98590.92
2018-12-14T08:32:40.796Z,98596.64
2018-12-14T08:35:09.504Z,98600.16
2018-12-14T08:37:37.835Z,98600.78
2018-12-14T08:40:08.961Z,98601.77
2018-12-14T08:42:37.759Z,98601.02
2018-12-14T08:45:06.717Z,98602.08
2018-12-14T08:47:35.326Z,98603.51
2018-12-14T08:50:04.179Z,98601.30
2018-12-14T08:52:33.714Z,98609.01
2018-12-14T08:55:02.008Z,98615.30
2018-12-14T08:57:30.633Z,98620.28
2018-12-14T08:59:58.887Z,98622.95
2018-12-14T09:02:27.575Z,98627.75
2018-12-14T09:04:55.849Z,98636.98
2018-12-14T09:07:24.652Z,98635.73
2018-12-14T09:09:53.643Z,98645.41
2018-12-14T09:12:21.854Z,98650.91
2018-12-14T09:14:50.178Z,98653.11
2018-12-14T09:17:18.679Z,98653.09
2018-12-14T09:19:47.675Z,98658.18
2018-12-14T09:22:15.954Z,98659.33
2018-12-14T09:24:44.433Z,98659.77
2018-12-14T09:27:13.272Z,98658.53
2018-12-14T09:29:41.624Z,98662.52
2018-12-14T09:32:09.955Z,98658.03
2018-12-14T09:34:38.946Z,98656.21
2018-12-14T09:37:07.878Z,98660.94
2018-12-14T09:39:36.835Z,98663.79
2018-12-14T09:42:05.182Z,98665.92
2018-12-14T09:44:33.489Z,98659.66
2018-12-14T09:47:01.764Z,98667.53
2018-12-14T09:49:30.054Z,98662.45
2018-12-14T09:51:58.810Z,98667.13
2018-12-14T09:54:27.203Z,98673.80
2018-12-14T09:56:55.450Z,98667.09
2018-12-14T09:59:23.704Z,98666.47
2018-12-14T10:01:52.257Z,98661.34
2018-12-14T10:04:20.848Z,98666.02
2018-12-14T10:06:49.333Z,98660.73
2018-12-14T10:09:18.230Z,98664.84
2018-12-14T10:11:48.000Z,98665.33
2018-12-14T10:14:16.436Z,98665.12
2018-12-14T10:16:44.997Z,98669.84
2018-12-14T10:19:13.708Z,98667.40
2018-12-14T10:21:41.993Z,98670.67
2018-12-14T10:24:10.272Z,98670.56
2018-12-14T10:26:38.856Z,98681.53
2018-12-14T10:29:07.482Z,98678.52
2018-12-14T10:31:36.365Z,98678.72
2018-12-14T10:34:04.799Z,98679.97
2018-12-14T10:36:33.328Z,98679.66
2018-12-14T10:39:02.239Z,98677.05
2018-12-14T10:41:31.787Z,98685.20
2018-12-14T10:44:00.035Z,98685.48
2018-12-14T10:46:29.411Z,98686.30
2018-12-14T10:48:57.817Z,98682.51
2018-12-14T10:51:26.374Z,98679.01
2018-12-14T10:53:54.541Z,98688.91
2018-12-14T10:56:23.166Z,98679.31
2018-12-14T10:58:51.454Z,98684.05
2018-12-14T11:01:25.510Z,98683.90
2018-12-14T11:03:53.789Z,98684.67
2018-12-14T11:06:22.085Z,98681.91
2018-12-14T11:08:51.084Z,98681.63
2018-12-14T11:11:20.277Z,98684.67
2018-12-14T11:13:48.564Z,98689.74
2018-12-14T11:16:17.075Z,98686.97
2018-12-14T11:18:45.333Z,98685.53
2018-12-14T11:21:13.603Z,98684.36
2018-12-14T11:23:42.481Z,98689.91
2018-12-14T11:26:10.680Z,98689.99
2018-12-14T11:28:38.987Z,98687.22
2018-12-14T11:31:07.213Z,98689.48
2018-12-14T11:33:35.663Z,98682.95
2018-12-14T11:36:04.207Z,98685.84
2018-12-14T11:38:32.946Z,98677.07
2018-12-14T11:41:02.429Z,98673.03
2018-12-14T11:43:31.320Z,98674.36
2018-12-14T11:46:00.039Z,98670.68
2018-12-14T11:48:28.603Z,98666.87
2018-12-14T11:51:00.249Z,98670.56
2018-12-14T11:53:28.909Z,98671.67
2018-12-14T11:55:57.593Z,98666.99
2018-12-14T11:58:26.059Z,98667.86
2018-12-14T12:00:54.486Z,98664.14
2018-12-14T12:03:22.824Z,98667.40
2018-12-14T12:05:51.101Z,98668.27
2018-12-14T12:08:19.828Z,98668.59
2018-12-14T12:10:48.589Z,98660.15
2018-12-14T12:13:17.344Z,98655.16
2018-12-14T12:15:45.589Z,98657.14
2018-12-14T12:18:14.285Z,98655.64
2018-12-14T12:20:42.616Z,98657.39
2018-12-14T12:23:10.934Z,98657.80
2018-12-14T12:25:39.673Z,98653.90
2018-12-14T12:28:08.361Z,98654.60
2018-12-14T12:30:36.694Z,98661.21
2018-12-14T12:33:04.949Z,98661.95
2018-12-14T12:35:33.671Z,98660.84
2018-12-14T12:38:01.969Z,98658.61
2018-12-14T12:40:31.318Z,98659.87
2018-12-14T12:42:59.868Z,98663.76
2018-12-14T12:45:28.126Z,98663.48
2018-12-14T12:47:56.427Z,98665.11
2018-12-14T12:50:24.672Z,98666.28
2018-12-14T12:52:53.029Z,98664.86
2018-12-14T12:55:22.179Z,98662.45
2018-12-14T12:57:50.497Z,98673.95
2018-12-14T13:00:18.761Z,98668.16
2018-12-14T13:02:48.278Z,98671.86
2018-12-14T13:05:16.732Z,98675.35
2018-12-14T13:07:45.438Z,98672.57
2018-12-14T13:10:14.584Z,98678.05
2018-12-14T13:12:42.967Z,98678.89
2018-12-14T13:15:11.332Z,98675.16
2018-12-14T13:17:39.856Z,98677.14
2018-12-14T13:20:09.053Z,98673.33
2018-12-14T13:22:37.978Z,98674.07
2018-12-14T13:25:06.278Z,98675.11
2018-12-14T13:27:34.617Z,98672.80
2018-12-14T13:32:43.259Z,98686.59
2018-12-14T13:35:11.576Z,98680.14
2018-12-14T13:37:39.909Z,98681.55
2018-12-14T13:40:08.606Z,98686.09
2018-12-14T13:42:37.157Z,98688.84
2018-12-14T13:45:05.412Z,98694.33
2018-12-14T13:47:33.679Z,98692.28
2018-12-14T13:50:02.287Z,98691.63
2018-12-14T13:52:32.292Z,98700.94
2018-12-14T13:55:01.439Z,98696.70
2018-12-14T13:57:29.874Z,98697.79
2018-12-14T13:59:58.253Z,98696.61
2018-12-14T14:02:27.146Z,98707.91
2018-12-14T14:04:56.326Z,98704.84
2018-12-14T14:07:24.969Z,98714.97
2018-12-14T14:09:53.290Z,98720.69
2018-12-14T14:12:21.957Z,98725.87
2018-12-14T14:14:53.062Z,98722.20
2018-12-14T14:17:20.889Z,98725.84
2018-12-14T14:19:49.623Z,98729.94
2018-12-14T14:24:57.233Z,98737.63
2018-12-14T14:27:25.543Z,98742.02
2018-12-14T14:29:54.114Z,98746.53
2018-12-14T14:32:23.682Z,98751.59
2018-12-14T14:34:52.519Z,98749.95
2018-12-14T14:37:21.977Z,98753.91
2018-12-14T14:39:50.574Z,98763.30
2018-12-14T14:42:19.406Z,98761.25
2018-12-14T14:44:47.657Z,98761.91
2018-12-14T14:47:16.257Z,98768.45
2018-12-14T14:49:44.917Z,98769.03
2018-12-14T14:52:13.250Z,98781.28
2018-12-14T14:54:41.549Z,98770.10
2018-12-14T14:57:10.258Z,98772.70
2018-12-14T14:59:38.552Z,98776.30
2018-12-14T15:02:07.107Z,98777.05
2018-12-14T15:04:36.553Z,98782.03
2018-12-14T15:07:05.211Z,98776.94
2018-12-14T15:09:33.543Z,98785.59
2018-12-14T15:12:02.537Z,98793.31
2018-12-14T15:14:31.104Z,98792.80
2018-12-14T15:16:59.420Z,98799.42
2018-12-14T15:19:27.761Z,98800.39
2018-12-14T15:21:56.376Z,98798.46
2018-12-14T15:24:25.312Z,98797.70
2018-12-14T15:26:54.268Z,98804.53
2018-12-14T15:29:22.556Z,98803.75
2018-12-14T15:31:51.130Z,98811.05
2018-12-14T15:34:19.465Z,98811.32
2018-12-14T15:36:47.898Z,98818.00
2018-12-14T15:39:16.342Z,98819.04
2018-12-14T15:41:45.810Z,98813.32
2018-12-14T15:44:14.109Z,98823.87
2018-12-14T15:46:42.644Z,98829.64
2018-12-14T15:49:11.967Z,98830.39
2018-12-14T15:51:40.286Z,98828.84
2018-12-14T15:54:08.897Z,98826.56
2018-12-14T15:56:37.224Z,98832.41
2018-12-14T15:59:05.484Z,98834.28
2018-12-14T16:01:33.783Z,98840.78
2018-12-14T16:04:02.401Z,98838.54
2018-12-14T16:06:32.031Z,98848.48
2018-12-14T16:09:00.547Z,98850.41
2018-12-14T16:11:29.127Z,98852.59
2018-12-14T16:13:57.758Z,98853.73
2018-12-14T16:16:26.435Z,98859.44
2018-12-14T16:18:54.910Z,98855.81
2018-12-14T16:21:23.532Z,98855.73
2018-12-14T16:23:52.426Z,98853.96
2018-12-14T16:26:21.461Z,98858.83
2018-12-14T16:28:50.193Z,98860.20
2018-12-14T16:31:18.769Z,98860.73
2018-12-14T16:33:47.317Z,98861.03
2018-12-14T16:36:16.919Z,98860.86
2018-12-14T16:38:45.311Z,98859.69
2018-12-14T16:41:13.989Z,98859.69
2018-12-14T16:43:43.541Z,98866.66
2018-12-14T16:46:13.094Z,98868.33
2018-12-14T16:51:22.380Z,98874.31
2018-12-14T16:53:56.396Z,98879.05
2018-12-14T16:56:25.202Z,98878.97
2018-12-14T16:58:53.849Z,98879.21
2018-12-14T17:01:23.093Z,98883.25
2018-12-14T17:03:53.881Z,98886.14
2018-12-14T17:06:22.129Z,98894.56
2018-12-14T17:08:50.934Z,98892.53
2018-12-14T17:11:19.234Z,98893.80
2018-12-14T17:13:47.836Z,98896.82
2018-12-14T17:16:16.630Z,98903.66
2018-12-14T17:18:45.210Z,98897.83
2018-12-14T17:21:14.838Z,98916.27
2018-12-14T17:23:43.435Z,98913.20
2018-12-14T17:26:12.712Z,98917.38
2018-12-14T17:28:41.554Z,98911.86
2018-12-14T17:31:09.829Z,98918.95
2018-12-14T17:33:38.096Z,98922.17
2018-12-14T17:36:09.472Z,98924.44
2018-12-14T17:38:38.865Z,98930.83
2018-12-14T17:41:07.696Z,98930.68
2018-12-14T17:43:36.030Z,98936.30
2018-12-14T17:46:05.442Z,98937.30
2018-12-14T17:48:33.943Z,98939.07
2018-12-14T17:51:02.207Z,98946.67
2018-12-14T17:53:31.376Z,98947.88
2018-12-14T17:55:59.980Z,98942.45
2018-12-14T17:58:29.200Z,98941.11
2018-12-14T18:00:58.525Z,98943.82
2018-12-14T18:03:27.350Z,98946.88
2018-12-14T18:05:55.639Z,98941.48
2018-12-14T18:08:24.021Z,98952.80
2018-12-14T18:10:52.760Z,98956.24
2018-12-14T18:13:21.265Z,98963.44
2018-12-14T18:15:49.551Z,98960.42
2018-12-14T18:18:17.827Z,98966.76
2018-12-14T18:20:46.620Z,98964.09
2018-12-14T18:23:14.889Z,98975.28
2018-12-14T18:25:43.198Z,98973.48
2018-12-14T18:28:13.122Z,98977.36
2018-12-14T18:30:41.502Z,98977.92
2018-12-14T18:33:09.781Z,98973.64
2018-12-14T18:35:38.126Z,98972.52
2018-12-14T18:38:07.995Z,98977.44
2018-12-14T18:40:36.609Z,98977.17
2018-12-14T18:43:05.091Z,98982.52
2018-12-14T18:45:33.724Z,98981.27
2018-12-14T18:48:02.782Z,98983.78
2018-12-14T18:50:31.082Z,98981.67
2018-12-14T18:52:59.392Z,98990.09
2018-12-14T18:55:27.769Z,98987.23
2018-12-14T18:57:56.593Z,98983.05
2018-12-14T19:00:25.293Z,98989.22
2018-12-14T19:02:53.570Z,98992.08
2018-12-14T19:05:21.869Z,98993.15
2018-12-14T19:07:50.463Z,98995.02
2018-12-14T19:10:18.869Z,98995.40
2018-12-14T19:12:47.160Z,98999.06
2018-12-14T19:17:55.125Z,99004.63
2018-12-14T19:20:23.480Z,99005.73
2018-12-14T19:22:52.019Z,99011.17
2018-12-14T19:25:20.633Z,99009.53
2018-12-14T19:27:48.863Z,99008.77
2018-12-14T19:30:17.448Z,99005.90
2018-12-14T19:32:46.350Z,99015.16
2018-12-14T19:35:14.701Z,99010.81
2018-12-14T19:37:42.948Z,99019.73
2018-12-14T19:40:11.226Z,99017.13
2018-12-14T19:42:39.524Z,99026.50
2018-12-14T19:45:09.549Z,99034.17
2018-12-14T19:47:38.259Z,99039.60
2018-12-14T19:50:07.889Z,99037.77
2018-12-14T19:52:36.315Z,99034.29
2018-12-14T19:55:06.483Z,99037.84
2018-12-14T19:57:35.043Z,99038.26
2018-12-14T20:00:04.909Z,99040.22
2018-12-14T20:02:33.315Z,99035.73
2018-12-14T20:05:01.938Z,99047.70
2018-12-14T20:10:10.353Z,99042.00
2018-12-14T20:12:38.634Z,99052.33
2018-12-14T20:15:07.168Z,99053.53
2018-12-14T20:17:35.408Z,99047.77
2018-12-14T20:20:04.635Z,99055.65
2018-12-14T20:22:33.088Z,99051.13
2018-12-14T20:25:01.601Z,99055.56
2018-12-14T20:27:30.217Z,99050.84
2018-12-14T20:29:58.725Z,99051.41
2018-12-14T20:32:27.110Z,99061.55
2018-12-14T20:34:55.728Z,99054.06
2018-12-14T20:37:24.378Z,99050.80
2018-12-14T20:39:53.238Z,99055.27
2018-12-14T20:42:21.785Z,99058.23
2018-12-14T20:44:50.062Z,99054.09
2018-12-14T20:47:18.261Z,99057.09
2018-12-14T20:49:46.519Z,99060.46
2018-12-14T20:52:14.769Z,99056.09
2018-12-14T20:54:43.055Z,99062.16
2018-12-14T20:57:11.682Z,99062.17
2018-12-14T20:59:39.975Z,99059.52
2018-12-14T21:02:08.254Z,99059.22
2018-12-14T21:04:36.558Z,99059.22
2018-12-14T21:07:05.113Z,99060.70
2018-12-14T21:09:33.477Z,99060.42
2018-12-14T21:12:01.886Z,99062.75
2018-12-14T21:14:30.605Z,99065.72
2018-12-14T21:16:58.930Z,99066.78
2018-12-14T21:19:27.501Z,99063.95
2018-12-14T21:21:55.777Z,99066.34
2018-12-14T21:24:25.278Z,99067.63
2018-12-14T21:26:53.759Z,99065.72
2018-12-14T21:29:22.460Z,99068.39
2018-12-14T21:31:51.633Z,99064.30
2018-12-14T21:34:19.905Z,99062.95
2018-12-14T21:36:48.411Z,99063.09
2018-12-14T21:39:16.723Z,99058.20
2018-12-14T21:41:45.024Z,99059.75
2018-12-14T21:44:13.330Z,99056.28
2018-12-14T21:46:42.128Z,99053.73
2018-12-14T21:49:10.468Z,99051.14
2018-12-14T21:51:38.743Z,99049.72
2018-12-14T21:54:07.447Z,99046.01
2018-12-14T21:56:35.753Z,99047.06
2018-12-14T21:59:04.407Z,99050.66
2018-12-14T22:01:32.913Z,99045.01
2018-12-14T22:04:01.556Z,99042.47
2018-12-14T22:06:29.900Z,99045.88
2018-12-14T22:08:58.281Z,99037.06
2018-12-14T22:11:26.558Z,99037.55
2018-12-14T22:13:55.113Z,99036.00
2018-12-14T22:16:23.689Z,99042.45
2018-12-14T22:18:52.190Z,99035.95
2018-12-14T22:21:20.432Z,99039.46
2018-12-14T22:23:48.934Z,99035.74
2018-12-14T22:26:17.419Z,99038.11
2018-12-14T22:28:45.760Z,99035.95
2018-12-14T22:31:14.001Z,99040.02
2018-12-14T22:33:42.683Z,99029.53
2018-12-14T22:36:11.256Z,99033.74
2018-12-14T22:38:40.125Z,99036.52
2018-12-14T22:41:08.693Z,99037.68
2018-12-14T22:43:37.111Z,99030.80
2018-12-14T22:46:05.365Z,99032.97
2018-12-14T22:48:33.637Z,99035.94
2018-12-14T22:51:02.373Z,99033.74
2018-12-14T22:53:31.732Z,99035.59
2018-12-14T22:56:00.354Z,99038.83
2018-12-14T22:58:28.841Z,99036.14
2018-12-14T23:00:57.129Z,99041.14
2018-12-14T23:03:25.742Z,99038.84
2018-12-14T23:05:54.025Z,99040.66
2018-12-14T23:08:22.269Z,99037.50
2018-12-14T23:10:50.545Z,99037.19
2018-12-14T23:13:19.100Z,99038.66
2018-12-14T23:15:47.798Z,99040.03
2018-12-14T23:18:16.309Z,99041.20
2018-12-14T23:20:44.584Z,99041.19
2018-12-14T23:23:12.868Z,99044.52
2018-12-14T23:25:41.494Z,99045.94
2018-12-14T23:28:10.129Z,99051.77
2018-12-14T23:30:38.427Z,99053.72
2018-12-14T23:33:08.352Z,99056.41
2018-12-14T23:35:36.662Z,99048.80
2018-12-14T23:38:05.237Z,99058.61
2018-12-14T23:40:33.750Z,99055.65
2018-12-14T23:43:02.275Z,99060.56
2018-12-14T23:45:30.585Z,99063.12
2018-12-14T23:47:59.237Z,99067.12
2018-12-14T23:50:27.536Z,99064.81
2018-12-14T23:52:55.836Z,99056.69
2018-12-14T23:55:24.449Z,99062.61
2018-12-14T23:57:52.671Z,99058.40
